sensor_id;sensor_type;location;lat;lon;timestamp;pressure;altitude;pressure_sealevel;temperature;humidity
26859;BME280;14429;48.346;16.338;2023-03-04T00:02:00;100097.53;;;12.29;43.03
26859;BME280;14429;48.346;16.338;2023-03-04T00:04:26;100089.28;;;12.32;42.98
26859;BME280;14429;48.346;16.338;2023-03-04T00:06:51;100089.28;;;12.32;42.92
26859;BME280;14429;48.346;16.338;2023-03-04T00:09:17;100089.28;;;12.32;43.04
26859;BME280;14429;48.346;16.338;2023-03-04T00:11:42;100083.19;;;12.30;43.02
26859;BME280;14429;48.346;16.338;2023-03-04T00:14:07;100087.03;;;12.26;43.13
26859;BME280;14429;48.346;16.338;2023-03-04T00:16:34;100082.31;;;12.17;43.42
26859;BME280;14429;48.346;16.338;2023-03-04T00:19:00;100081.69;;;12.14;43.44
26859;BME280;14429;48.346;16.338;2023-03-04T00:21:25;100074.63;;;12.13;43.45
26859;BME280;14429;48.346;16.338;2023-03-04T00:23:50;100077.09;;;12.04;43.69
26859;BME280;14429;48.346;16.338;2023-03-04T00:26:16;100076.63;;;11.85;43.96
26859;BME280;14429;48.346;16.338;2023-03-04T00:28:42;100073.94;;;11.85;43.68
26859;BME280;14429;48.346;16.338;2023-03-04T00:31:09;100071.19;;;11.99;43.91
26859;BME280;14429;48.346;16.338;2023-03-04T00:33:37;100073.94;;;11.85;44.26
26859;BME280;14429;48.346;16.338;2023-03-04T00:36:03;100073.28;;;11.69;43.62
26859;BME280;14429;48.346;16.338;2023-03-04T00:38:29;100069.84;;;11.67;44.19
26859;BME280;14429;48.346;16.338;2023-03-04T00:40:54;100071.81;;;11.90;44.15
26859;BME280;14429;48.346;16.338;2023-03-04T00:43:20;100062.44;;;11.97;43.98
26859;BME280;14429;48.346;16.338;2023-03-04T00:45:45;100073.13;;;11.97;44.04
26859;BME280;14429;48.346;16.338;2023-03-04T00:48:11;100068.59;;;11.85;43.86
26859;BME280;14429;48.346;16.338;2023-03-04T00:50:38;100061.38;;;11.99;43.98
26859;BME280;14429;48.346;16.338;2023-03-04T00:53:04;100054.72;;;12.05;43.92
26859;BME280;14429;48.346;16.338;2023-03-04T00:55:29;100050.13;;;11.94;43.97
26859;BME280;14429;48.346;16.338;2023-03-04T00:57:55;100051.53;;;12.00;43.99
26859;BME280;14429;48.346;16.338;2023-03-04T01:00:21;100058.38;;;12.04;43.97
26859;BME280;14429;48.346;16.338;2023-03-04T01:02:47;100046.66;;;11.80;43.82
26859;BME280;14429;48.346;16.338;2023-03-04T01:05:13;100041.03;;;11.97;44.09
26859;BME280;14429;48.346;16.338;2023-03-04T01:07:40;100035.25;;;12.03;43.84
26859;BME280;14429;48.346;16.338;2023-03-04T01:10:07;100036.75;;;11.82;44.25
26859;BME280;14429;48.346;16.338;2023-03-04T01:12:34;100030.56;;;11.94;44.10
26859;BME280;14429;48.346;16.338;2023-03-04T01:14:59;100029.72;;;11.93;44.05
26859;BME280;14429;48.346;16.338;2023-03-04T01:17:25;100030.75;;;11.91;44.16
26859;BME280;14429;48.346;16.338;2023-03-04T01:19:50;100029.47;;;11.84;44.27
26859;BME280;14429;48.346;16.338;2023-03-04T01:22:16;100031.63;;;11.91;44.06
26859;BME280;14429;48.346;16.338;2023-03-04T01:24:42;100016.69;;;11.89;44.12
26859;BME280;14429;48.346;16.338;2023-03-04T01:27:08;100026.25;;;11.67;43.64
26859;BME280;14429;48.346;16.338;2023-03-04T01:29:33;100018.38;;;11.90;44.18
26859;BME280;14429;48.346;16.338;2023-03-04T01:31:59;100013.03;;;11.78;44.23
26859;BME280;14429;48.346;16.338;2023-03-04T01:34:24;100011.34;;;11.89;44.12
26859;BME280;14429;48.346;16.338;2023-03-04T01:36:50;100010.25;;;11.91;44.12
26859;BME280;14429;48.346;16.338;2023-03-04T01:39:15;100009.09;;;11.95;43.97
26859;BME280;14429;48.346;16.338;2023-03-04T01:41:42;100015.91;;;11.87;44.17
26859;BME280;14429;48.346;16.338;2023-03-04T01:44:08;100008.53;;;11.90;44.05
26859;BME280;14429;48.346;16.338;2023-03-04T01:46:35;100018.78;;;11.84;43.99
26859;BME280;14429;48.346;16.338;2023-03-04T01:49:01;100013.44;;;11.84;44.29
26859;BME280;14429;48.346;16.338;2023-03-04T01:51:27;100003.59;;;11.72;42.40
26859;BME280;14429;48.346;16.338;2023-03-04T01:53:52;100005.09;;;11.76;44.36
26859;BME280;14429;48.346;16.338;2023-03-04T01:56:21;100004.69;;;11.82;44.20
26859;BME280;14429;48.346;16.338;2023-03-04T01:59:05;100002.22;;;11.79;44.34
26859;BME280;14429;48.346;16.338;2023-03-04T02:01:31;99999.34;;;11.82;44.25
26859;BME280;14429;48.346;16.338;2023-03-04T02:03:57;100001.69;;;11.74;44.39
26859;BME280;14429;48.346;16.338;2023-03-04T02:06:22;99995.06;;;11.67;44.45
26859;BME280;14429;48.346;16.338;2023-03-04T02:08:48;99990.13;;;11.61;44.24
26859;BME280;14429;48.346;16.338;2023-03-04T02:11:13;99984.38;;;11.55;44.60
26859;BME280;14429;48.346;16.338;2023-03-04T02:13:39;99980.09;;;11.65;44.52
26859;BME280;14429;48.346;16.338;2023-03-04T02:16:06;99972.19;;;11.63;44.58
26859;BME280;14429;48.346;16.338;2023-03-04T02:18:31;99968.31;;;11.43;44.15
26859;BME280;14429;48.346;16.338;2023-03-04T02:21:04;99964.47;;;11.47;44.52
26859;BME280;14429;48.346;16.338;2023-03-04T02:23:37;99965.34;;;11.59;44.47
26859;BME280;14429;48.346;16.338;2023-03-04T02:26:13;99965.16;;;11.62;44.51
26859;BME280;14429;48.346;16.338;2023-03-04T02:28:39;99966.59;;;11.54;44.61
26859;BME280;14429;48.346;16.338;2023-03-04T02:31:05;99953.69;;;11.60;44.71
26859;BME280;14429;48.346;16.338;2023-03-04T02:33:31;99949.31;;;11.47;44.80
26859;BME280;14429;48.346;16.338;2023-03-04T02:35:57;99955.19;;;11.40;44.96
26859;BME280;14429;48.346;16.338;2023-03-04T02:38:22;99955.53;;;11.48;44.81
26859;BME280;14429;48.346;16.338;2023-03-04T02:40:50;99957.88;;;11.52;44.74
26859;BME280;14429;48.346;16.338;2023-03-04T02:43:18;99952.53;;;11.52;44.66
26859;BME280;14429;48.346;16.338;2023-03-04T02:45:45;99944.19;;;11.57;44.53
26859;BME280;14429;48.346;16.338;2023-03-04T02:48:12;99938.13;;;11.55;44.68
26859;BME280;14429;48.346;16.338;2023-03-04T02:50:41;99946.53;;;11.49;44.70
26859;BME280;14429;48.346;16.338;2023-03-04T02:53:07;99937.56;;;11.50;44.67
26859;BME280;14429;48.346;16.338;2023-03-04T02:55:32;99928.38;;;11.54;44.53
26859;BME280;14429;48.346;16.338;2023-03-04T02:57:58;99934.38;;;11.45;44.72
26859;BME280;14429;48.346;16.338;2023-03-04T03:00:25;99929.66;;;11.48;44.75
26859;BME280;14429;48.346;16.338;2023-03-04T03:02:51;99928.91;;;11.46;44.77
26859;BME280;14429;48.346;16.338;2023-03-04T03:05:17;99925.59;;;11.43;44.67
26859;BME280;14429;48.346;16.338;2023-03-04T03:07:43;99921.00;;;11.45;44.78
26859;BME280;14429;48.346;16.338;2023-03-04T03:10:09;99918.53;;;11.42;44.84
26859;BME280;14429;48.346;16.338;2023-03-04T03:12:35;99909.03;;;11.38;44.86
26859;BME280;14429;48.346;16.338;2023-03-04T03:15:00;99911.72;;;11.38;44.87
26859;BME280;14429;48.346;16.338;2023-03-04T03:17:27;99908.88;;;11.27;45.10
26859;BME280;14429;48.346;16.338;2023-03-04T03:19:52;99910.19;;;11.34;45.02
26859;BME280;14429;48.346;16.338;2023-03-04T03:22:18;99912.66;;;11.37;44.93
26859;BME280;14429;48.346;16.338;2023-03-04T03:24:43;99904.00;;;11.33;44.98
26859;BME280;14429;48.346;16.338;2023-03-04T03:27:08;99895.78;;;11.36;44.93
26859;BME280;14429;48.346;16.338;2023-03-04T03:29:34;99895.78;;;11.36;44.81
26859;BME280;14429;48.346;16.338;2023-03-04T03:31:59;99900.25;;;11.36;44.81
26859;BME280;14429;48.346;16.338;2023-03-04T03:34:26;99895.97;;;11.33;44.80
26859;BME280;14429;48.346;16.338;2023-03-04T03:36:52;99894.94;;;11.36;44.91
26859;BME280;14429;48.346;16.338;2023-03-04T03:39:17;99887.00;;;11.34;44.77
26859;BME280;14429;48.346;16.338;2023-03-04T03:41:43;99887.13;;;11.33;44.78
26859;BME280;14429;48.346;16.338;2023-03-04T03:44:08;99881.78;;;11.33;44.92
26859;BME280;14429;48.346;16.338;2023-03-04T03:46:34;99882.97;;;11.29;45.00
26859;BME280;14429;48.346;16.338;2023-03-04T03:48:59;99881.22;;;11.28;44.96
26859;BME280;14429;48.346;16.338;2023-03-04T03:51:26;99879.63;;;11.26;45.02
26859;BME280;14429;48.346;16.338;2023-03-04T03:53:51;99877.06;;;11.24;44.98
26859;BME280;14429;48.346;16.338;2023-03-04T03:56:17;99877.28;;;11.21;45.06
26859;BME280;14429;48.346;16.338;2023-03-04T03:58:42;99869.81;;;11.14;45.13
26859;BME280;14429;48.346;16.338;2023-03-04T04:01:08;99868.53;;;11.19;45.05
26859;BME280;14429;48.346;16.338;2023-03-04T04:03:33;99871.25;;;10.93;43.39
26859;BME280;14429;48.346;16.338;2023-03-04T04:05:59;99871.56;;;10.50;45.04
26859;BME280;14429;48.346;16.338;2023-03-04T04:08:26;99872.28;;;10.78;45.87
26859;BME280;14429;48.346;16.338;2023-03-04T04:10:51;99877.78;;;10.63;44.45
26859;BME280;14429;48.346;16.338;2023-03-04T04:13:17;99870.53;;;10.65;45.63
26859;BME280;14429;48.346;16.338;2023-03-04T04:15:43;99869.38;;;10.69;46.11
26859;BME280;14429;48.346;16.338;2023-03-04T04:18:08;99859.13;;;10.76;46.07
26859;BME280;14429;48.346;16.338;2023-03-04T04:20:34;99862.88;;;10.21;46.36
26859;BME280;14429;48.346;16.338;2023-03-04T04:23:00;99852.13;;;10.49;45.38
26859;BME280;14429;48.346;16.338;2023-03-04T04:25:26;99851.38;;;10.47;45.74
26859;BME280;14429;48.346;16.338;2023-03-04T04:27:52;99865.94;;;10.01;47.06
26859;BME280;14429;48.346;16.338;2023-03-04T04:30:18;99852.59;;;10.29;46.63
26859;BME280;14429;48.346;16.338;2023-03-04T04:32:43;99853.94;;;10.22;46.84
26859;BME280;14429;48.346;16.338;2023-03-04T04:35:09;99859.13;;;9.70;45.81
26859;BME280;14429;48.346;16.338;2023-03-04T04:37:34;99854.56;;;9.86;48.17
26859;BME280;14429;48.346;16.338;2023-03-04T04:40:00;99845.44;;;9.62;48.09
26859;BME280;14429;48.346;16.338;2023-03-04T04:42:27;99852.94;;;8.72;47.63
26859;BME280;14429;48.346;16.338;2023-03-04T04:44:52;99845.66;;;8.89;47.63
26859;BME280;14429;48.346;16.338;2023-03-04T04:47:18;99845.72;;;9.44;45.22
26859;BME280;14429;48.346;16.338;2023-03-04T04:49:43;99837.63;;;9.45;46.76
26859;BME280;14429;48.346;16.338;2023-03-04T04:52:09;99846.44;;;9.05;49.31
26859;BME280;14429;48.346;16.338;2023-03-04T04:54:34;99835.56;;;9.50;49.00
26859;BME280;14429;48.346;16.338;2023-03-04T04:57:00;99838.59;;;9.58;48.92
26859;BME280;14429;48.346;16.338;2023-03-04T04:59:26;99834.03;;;9.33;48.35
26859;BME280;14429;48.346;16.338;2023-03-04T05:01:52;99838.59;;;9.17;49.67
26859;BME280;14429;48.346;16.338;2023-03-04T05:04:17;99844.72;;;8.61;46.97
26859;BME280;14429;48.346;16.338;2023-03-04T05:06:44;99830.03;;;9.26;48.06
26859;BME280;14429;48.346;16.338;2023-03-04T05:09:09;99834.59;;;9.51;49.12
26859;BME280;14429;48.346;16.338;2023-03-04T05:11:35;99825.47;;;9.14;47.76
26859;BME280;14429;48.346;16.338;2023-03-04T05:14:00;99841.91;;;8.49;49.63
26859;BME280;14429;48.346;16.338;2023-03-04T05:16:27;99840.19;;;9.19;49.00
26859;BME280;14429;48.346;16.338;2023-03-04T05:18:52;99840.31;;;9.59;49.13
26859;BME280;14429;48.346;16.338;2023-03-04T05:21:18;99832.31;;;9.18;49.38
26859;BME280;14429;48.346;16.338;2023-03-04T05:23:43;99849.72;;;7.60;48.02
26859;BME280;14429;48.346;16.338;2023-03-04T05:26:12;99835.56;;;8.80;50.47
26859;BME280;14429;48.346;16.338;2023-03-04T05:28:38;99831.06;;;9.23;47.70
26859;BME280;14429;48.346;16.338;2023-03-04T05:31:04;99830.13;;;8.68;50.67
26859;BME280;14429;48.346;16.338;2023-03-04T05:33:31;99829.63;;;8.17;46.64
26859;BME280;14429;48.346;16.338;2023-03-04T05:35:57;99833.28;;;8.74;50.55
26859;BME280;14429;48.346;16.338;2023-03-04T05:38:22;99821.22;;;9.39;49.45
26859;BME280;14429;48.346;16.338;2023-03-04T05:40:48;99839.44;;;8.75;46.45
26859;BME280;14429;48.346;16.338;2023-03-04T05:43:14;99830.06;;;7.79;47.59
26859;BME280;14429;48.346;16.338;2023-03-04T05:45:40;99837.88;;;8.57;51.73
26859;BME280;14429;48.346;16.338;2023-03-04T05:48:06;99831.59;;;7.68;49.17
26859;BME280;14429;48.346;16.338;2023-03-04T05:50:33;99832.19;;;7.73;49.74
26859;BME280;14429;48.346;16.338;2023-03-04T05:52:59;99834.94;;;8.02;51.91
26859;BME280;14429;48.346;16.338;2023-03-04T05:55:25;99830.13;;;7.63;50.32
26859;BME280;14429;48.346;16.338;2023-03-04T05:57:50;99824.66;;;8.56;51.93
26859;BME280;14429;48.346;16.338;2023-03-04T06:00:16;99829.03;;;8.28;49.75
26859;BME280;14429;48.346;16.338;2023-03-04T06:02:42;99831.56;;;8.44;49.39
26859;BME280;14429;48.346;16.338;2023-03-04T06:05:12;99836.22;;;8.26;49.70
26859;BME280;14429;48.346;16.338;2023-03-04T06:07:39;99838.97;;;8.68;51.26
26859;BME280;14429;48.346;16.338;2023-03-04T06:10:05;99840.66;;;8.40;48.48
26859;BME280;14429;48.346;16.338;2023-03-04T06:12:31;99843.69;;;8.34;51.87
26859;BME280;14429;48.346;16.338;2023-03-04T06:14:57;99850.59;;;8.37;47.58
26859;BME280;14429;48.346;16.338;2023-03-04T06:17:22;99853.69;;;8.30;47.91
26859;BME280;14429;48.346;16.338;2023-03-04T06:19:48;99856.44;;;9.01;50.00
26859;BME280;14429;48.346;16.338;2023-03-04T06:22:13;99863.06;;;8.94;49.63
26859;BME280;14429;48.346;16.338;2023-03-04T06:24:40;99857.22;;;9.44;49.28
26859;BME280;14429;48.346;16.338;2023-03-04T06:27:07;99865.31;;;8.58;50.29
26859;BME280;14429;48.346;16.338;2023-03-04T06:29:32;99862.00;;;8.97;50.27
26859;BME280;14429;48.346;16.338;2023-03-04T06:31:58;99862.09;;;8.95;47.91
26859;BME280;14429;48.346;16.338;2023-03-04T06:34:23;99857.41;;;8.56;50.63
26859;BME280;14429;48.346;16.338;2023-03-04T06:36:49;99858.41;;;9.12;49.60
26859;BME280;14429;48.346;16.338;2023-03-04T06:39:14;99857.81;;;9.36;49.29
26859;BME280;14429;48.346;16.338;2023-03-04T06:41:41;99852.75;;;9.17;46.76
26859;BME280;14429;48.346;16.338;2023-03-04T06:44:07;99862.72;;;9.14;49.13
26859;BME280;14429;48.346;16.338;2023-03-04T06:46:32;99859.13;;;9.42;49.10
26859;BME280;14429;48.346;16.338;2023-03-04T06:48:58;99858.75;;;9.48;46.66
26859;BME280;14429;48.346;16.338;2023-03-04T06:51:23;99848.84;;;9.64;45.31
26859;BME280;14429;48.346;16.338;2023-03-04T06:53:49;99846.66;;;9.15;47.29
26859;BME280;14429;48.346;16.338;2023-03-04T06:56:14;99843.72;;;9.47;48.58
26859;BME280;14429;48.346;16.338;2023-03-04T06:58:42;99836.31;;;9.66;48.51
26859;BME280;14429;48.346;16.338;2023-03-04T07:01:11;99831.38;;;9.88;47.92
26859;BME280;14429;48.346;16.338;2023-03-04T07:03:37;99833.13;;;10.01;47.34
26859;BME280;14429;48.346;16.338;2023-03-04T07:06:03;99833.34;;;9.70;48.41
26859;BME280;14429;48.346;16.338;2023-03-04T07:08:28;99829.06;;;9.68;48.79
26859;BME280;14429;48.346;16.338;2023-03-04T07:10:53;99814.41;;;10.02;47.79
26859;BME280;14429;48.346;16.338;2023-03-04T07:13:19;99821.09;;;10.22;47.17
26859;BME280;14429;48.346;16.338;2023-03-04T07:15:46;99814.56;;;10.13;47.61
26859;BME280;14429;48.346;16.338;2023-03-04T07:18:11;99818.00;;;10.01;48.83
26859;BME280;14429;48.346;16.338;2023-03-04T07:20:37;99818.03;;;9.74;50.08
26859;BME280;14429;48.346;16.338;2023-03-04T07:23:02;99821.44;;;10.03;47.94
26859;BME280;14429;48.346;16.338;2023-03-04T07:25:28;99819.03;;;10.39;47.00
26859;BME280;14429;48.346;16.338;2023-03-04T07:27:53;99817.44;;;10.10;48.99
26859;BME280;14429;48.346;16.338;2023-03-04T07:30:19;99813.25;;;10.06;48.77
26859;BME280;14429;48.346;16.338;2023-03-04T07:32:46;99833.13;;;10.41;46.95
26859;BME280;14429;48.346;16.338;2023-03-04T07:35:11;99830.06;;;10.47;46.75
26859;BME280;14429;48.346;16.338;2023-03-04T07:37:36;99833.28;;;10.51;47.05
26859;BME280;14429;48.346;16.338;2023-03-04T07:40:02;99833.81;;;10.56;46.55
26859;BME280;14429;48.346;16.338;2023-03-04T07:42:28;99835.28;;;10.48;47.31
26859;BME280;14429;48.346;16.338;2023-03-04T07:44:53;99831.06;;;10.58;46.70
26859;BME280;14429;48.346;16.338;2023-03-04T07:47:19;99829.66;;;10.65;46.95
26859;BME280;14429;48.346;16.338;2023-03-04T07:49:46;99825.94;;;10.67;49.17
26859;BME280;14429;48.346;16.338;2023-03-04T07:52:11;99835.78;;;10.79;46.17
26859;BME280;14429;48.346;16.338;2023-03-04T07:54:37;99834.28;;;10.75;46.63
26859;BME280;14429;48.346;16.338;2023-03-04T07:57:02;99840.94;;;10.82;46.68
26859;BME280;14429;48.346;16.338;2023-03-04T07:59:27;99831.75;;;10.74;48.02
26859;BME280;14429;48.346;16.338;2023-03-04T08:01:53;99839.53;;;10.77;47.76
26859;BME280;14429;48.346;16.338;2023-03-04T08:04:18;99828.28;;;10.59;48.97
26859;BME280;14429;48.346;16.338;2023-03-04T08:06:45;99831.81;;;10.72;47.09
26859;BME280;14429;48.346;16.338;2023-03-04T08:09:11;99829.16;;;10.72;46.19
26859;BME280;14429;48.346;16.338;2023-03-04T08:11:37;99840.06;;;10.69;47.78
26859;BME280;14429;48.346;16.338;2023-03-04T08:14:03;99836.63;;;10.67;46.51
26859;BME280;14429;48.346;16.338;2023-03-04T08:16:28;99837.91;;;10.62;49.06
26859;BME280;14429;48.346;16.338;2023-03-04T08:18:55;99835.56;;;10.70;47.98
26859;BME280;14429;48.346;16.338;2023-03-04T08:21:22;99838.97;;;10.72;47.05
26859;BME280;14429;48.346;16.338;2023-03-04T08:23:50;99831.81;;;10.72;46.33
26859;BME280;14429;48.346;16.338;2023-03-04T08:26:17;99831.09;;;10.70;47.83
26859;BME280;14429;48.346;16.338;2023-03-04T08:28:44;99828.00;;;10.76;46.53
26859;BME280;14429;48.346;16.338;2023-03-04T08:31:10;99839.41;;;10.78;46.29
26859;BME280;14429;48.346;16.338;2023-03-04T08:33:36;99826.03;;;10.92;47.11
26859;BME280;14429;48.346;16.338;2023-03-04T08:36:01;99833.88;;;10.81;46.08
26859;BME280;14429;48.346;16.338;2023-03-04T08:38:26;99830.06;;;10.85;46.13
26859;BME280;14429;48.346;16.338;2023-03-04T08:40:54;99832.28;;;10.91;46.39
26859;BME280;14429;48.346;16.338;2023-03-04T08:43:19;99830.19;;;10.96;46.04
26859;BME280;14429;48.346;16.338;2023-03-04T08:45:45;99824.97;;;11.06;47.92
26859;BME280;14429;48.346;16.338;2023-03-04T08:48:10;99834.78;;;11.06;46.09
26859;BME280;14429;48.346;16.338;2023-03-04T08:50:36;99835.84;;;11.16;46.15
26859;BME280;14429;48.346;16.338;2023-03-04T08:53:01;99838.84;;;11.11;45.65
26859;BME280;14429;48.346;16.338;2023-03-04T08:55:27;99839.25;;;11.05;46.21
26859;BME280;14429;48.346;16.338;2023-03-04T08:57:54;99834.22;;;10.89;46.42
26859;BME280;14429;48.346;16.338;2023-03-04T09:00:19;99834.34;;;11.00;45.81
26859;BME280;14429;48.346;16.338;2023-03-04T09:02:45;99829.53;;;11.17;46.73
26859;BME280;14429;48.346;16.338;2023-03-04T09:05:10;99842.56;;;10.97;45.95
26859;BME280;14429;48.346;16.338;2023-03-04T09:07:36;99836.06;;;11.01;45.80
26859;BME280;14429;48.346;16.338;2023-03-04T09:10:01;99828.16;;;10.99;45.85
26859;BME280;14429;48.346;16.338;2023-03-04T09:12:27;99825.25;;;11.02;45.74
26859;BME280;14429;48.346;16.338;2023-03-04T09:14:53;99830.94;;;11.10;45.35
26859;BME280;14429;48.346;16.338;2023-03-04T09:17:19;99835.53;;;11.08;45.53
26859;BME280;14429;48.346;16.338;2023-03-04T09:19:44;99820.28;;;11.22;45.22
26859;BME280;14429;48.346;16.338;2023-03-04T09:22:10;99829.88;;;11.12;45.26
26859;BME280;14429;48.346;16.338;2023-03-04T09:24:35;99832.84;;;10.96;45.60
26859;BME280;14429;48.346;16.338;2023-03-04T09:27:01;99824.00;;;11.20;45.08
26859;BME280;14429;48.346;16.338;2023-03-04T09:29:26;99816.44;;;11.26;44.78
26859;BME280;14429;48.346;16.338;2023-03-04T09:31:53;99824.75;;;11.22;44.86
26859;BME280;14429;48.346;16.338;2023-03-04T09:34:19;99818.66;;;11.07;45.28
26859;BME280;14429;48.346;16.338;2023-03-04T09:36:45;99809.06;;;11.05;45.26
26859;BME280;14429;48.346;16.338;2023-03-04T09:39:11;99814.06;;;10.85;45.93
26859;BME280;14429;48.346;16.338;2023-03-04T09:41:39;99814.91;;;10.98;45.35
26859;BME280;14429;48.346;16.338;2023-03-04T09:44:12;99805.22;;;10.97;45.48
26859;BME280;14429;48.346;16.338;2023-03-04T09:46:40;99813.00;;;11.00;45.40
26859;BME280;14429;48.346;16.338;2023-03-04T09:49:10;99812.38;;;11.21;44.76
26859;BME280;14429;48.346;16.338;2023-03-04T09:51:47;99811.94;;;11.14;44.89
26859;BME280;14429;48.346;16.338;2023-03-04T09:54:19;99799.09;;;10.95;45.51
26859;BME280;14429;48.346;16.338;2023-03-04T09:56:48;99796.69;;;11.04;45.05
26859;BME280;14429;48.346;16.338;2023-03-04T09:59:23;99803.19;;;11.00;45.46
26859;BME280;14429;48.346;16.338;2023-03-04T10:01:52;99805.31;;;10.95;45.57
26859;BME280;14429;48.346;16.338;2023-03-04T10:04:28;99790.16;;;10.96;45.51
26859;BME280;14429;48.346;16.338;2023-03-04T10:06:55;99788.22;;;10.98;45.28
26859;BME280;14429;48.346;16.338;2023-03-04T10:09:24;99783.09;;;10.95;45.40
26859;BME280;14429;48.346;16.338;2023-03-04T10:11:58;99796.25;;;10.98;45.43
26859;BME280;14429;48.346;16.338;2023-03-04T10:14:32;99782.91;;;10.98;45.06
26859;BME280;14429;48.346;16.338;2023-03-04T10:16:59;99784.19;;;11.04;45.08
26859;BME280;14429;48.346;16.338;2023-03-04T10:19:35;99773.53;;;11.04;44.98
26859;BME280;14429;48.346;16.338;2023-03-04T10:22:14;99774.81;;;10.99;45.29
26859;BME280;14429;48.346;16.338;2023-03-04T10:24:41;99760.81;;;10.96;45.40
26859;BME280;14429;48.346;16.338;2023-03-04T10:27:09;99766.69;;;11.13;44.74
26859;BME280;14429;48.346;16.338;2023-03-04T10:29:36;99761.34;;;11.01;45.21
26859;BME280;14429;48.346;16.338;2023-03-04T10:32:02;99770.00;;;10.92;45.50
26859;BME280;14429;48.346;16.338;2023-03-04T10:34:27;99760.63;;;10.99;45.21
26859;BME280;14429;48.346;16.338;2023-03-04T10:36:57;99750.25;;;11.19;44.71
26859;BME280;14429;48.346;16.338;2023-03-04T10:39:26;99745.56;;;11.10;44.99
26859;BME280;14429;48.346;16.338;2023-03-04T10:41:58;99745.97;;;11.16;44.57
26859;BME280;14429;48.346;16.338;2023-03-04T10:44:24;99745.44;;;11.24;44.47
26859;BME280;14429;48.346;16.338;2023-03-04T10:46:52;99744.16;;;11.29;44.46
26859;BME280;14429;48.346;16.338;2023-03-04T10:49:18;99732.78;;;11.03;45.08
26859;BME280;14429;48.346;16.338;2023-03-04T10:51:45;99735.09;;;11.19;43.23
26859;BME280;14429;48.346;16.338;2023-03-04T10:54:24;99738.28;;;11.24;44.34
26859;BME280;14429;48.346;16.338;2023-03-04T10:56:57;99730.84;;;11.04;45.03
26859;BME280;14429;48.346;16.338;2023-03-04T10:59:40;99716.31;;;11.08;45.09
26859;BME280;14429;48.346;16.338;2023-03-04T11:02:19;99726.03;;;11.22;44.70
26859;BME280;14429;48.346;16.338;2023-03-04T11:04:49;99727.84;;;11.21;43.34
26859;BME280;14429;48.346;16.338;2023-03-04T11:07:14;99723.56;;;11.19;44.69
26859;BME280;14429;48.346;16.338;2023-03-04T11:09:43;99716.31;;;11.08;44.96
26859;BME280;14429;48.346;16.338;2023-03-04T11:12:10;99728.94;;;11.06;45.05
26859;BME280;14429;48.346;16.338;2023-03-04T11:14:39;99712.69;;;11.09;44.92
26859;BME280;14429;48.346;16.338;2023-03-04T11:17:17;99714.38;;;11.23;44.47
26859;BME280;14429;48.346;16.338;2023-03-04T11:19:47;99726.13;;;11.20;44.20
26859;BME280;14429;48.346;16.338;2023-03-04T11:22:15;99706.81;;;11.04;44.91
26859;BME280;14429;48.346;16.338;2023-03-04T11:24:54;99705.22;;;11.14;44.69
26859;BME280;14429;48.346;16.338;2023-03-04T11:27:23;99696.66;;;11.09;44.75
26859;BME280;14429;48.346;16.338;2023-03-04T11:29:55;99701.28;;;11.07;45.00
26859;BME280;14429;48.346;16.338;2023-03-04T11:32:25;99697.13;;;11.03;44.98
26859;BME280;14429;48.346;16.338;2023-03-04T11:34:55;99693.28;;;11.07;44.87
26859;BME280;14429;48.346;16.338;2023-03-04T11:37:27;99691.66;;;11.17;43.66
26859;BME280;14429;48.346;16.338;2023-03-04T11:39:58;99696.47;;;11.12;44.58
26859;BME280;14429;48.346;16.338;2023-03-04T11:42:31;99693.94;;;10.99;45.05
26859;BME280;14429;48.346;16.338;2023-03-04T11:44:59;99702.66;;;11.01;44.86
26859;BME280;14429;48.346;16.338;2023-03-04T11:47:38;99690.94;;;11.03;44.71
26859;BME280;14429;48.346;16.338;2023-03-04T11:50:26;99682.16;;;11.26;43.67
26859;BME280;14429;48.346;16.338;2023-03-04T11:56:09;99673.28;;;11.13;44.68
26859;BME280;14429;48.346;16.338;2023-03-04T11:58:49;99673.44;;;10.99;44.88
26859;BME280;14429;48.346;16.338;2023-03-04T12:01:22;99649.31;;;11.01;45.06
26859;BME280;14429;48.346;16.338;2023-03-04T12:04:03;99648.03;;;11.06;44.08
26859;BME280;14429;48.346;16.338;2023-03-04T12:06:37;99651.22;;;11.11;44.79
26859;BME280;14429;48.346;16.338;2023-03-04T12:09:16;99650.88;;;11.15;44.70
26859;BME280;14429;48.346;16.338;2023-03-04T12:11:53;99654.06;;;11.20;43.07
26859;BME280;14429;48.346;16.338;2023-03-04T12:14:25;99640.34;;;11.02;44.79
26859;BME280;14429;48.346;16.338;2023-03-04T12:17:24;99656.94;;;11.30;43.79
26859;BME280;14429;48.346;16.338;2023-03-04T12:20:16;99637.53;;;11.15;43.02
26859;BME280;14429;48.346;16.338;2023-03-04T12:22:46;99625.59;;;11.08;44.47
26859;BME280;14429;48.346;16.338;2023-03-04T12:25:34;99629.25;;;11.07;44.56
26859;BME280;14429;48.346;16.338;2023-03-04T12:28:12;99632.00;;;11.18;44.39
26859;BME280;14429;48.346;16.338;2023-03-04T12:30:52;99635.28;;;11.22;44.38
26859;BME280;14429;48.346;16.338;2023-03-04T12:33:32;99617.38;;;11.11;44.57
26859;BME280;14429;48.346;16.338;2023-03-04T12:36:09;99620.38;;;11.07;44.66
26859;BME280;14429;48.346;16.338;2023-03-04T12:38:48;99624.63;;;11.09;44.54
26859;BME280;14429;48.346;16.338;2023-03-04T12:41:27;99629.31;;;11.18;43.85
26859;BME280;14429;48.346;16.338;2023-03-04T12:44:01;99615.25;;;11.04;44.62
26859;BME280;14429;48.346;16.338;2023-03-04T12:46:37;99610.44;;;11.09;44.57
26859;BME280;14429;48.346;16.338;2023-03-04T12:49:25;99595.06;;;11.12;44.53
26859;BME280;14429;48.346;16.338;2023-03-04T12:52:02;99597.38;;;11.29;43.00
26859;BME280;14429;48.346;16.338;2023-03-04T12:54:32;99596.53;;;11.29;44.16
26859;BME280;14429;48.346;16.338;2023-03-04T12:57:02;99603.66;;;11.28;44.33